Latest Weather Observations for Perth Airport

IDW60901

Issued at 10:21 pm WST Sunday 21 December 2014 (issued every 10 minutes, with the page automatically refreshed every 10 minutes)

About weather observations | Map of Perth area stations | Latest observations for Perth area | Other Formats
Station Details ID: 009021 Name: PERTH AIRPORT Lat: -31.93 Lon: 115.98 Height: 15.4 m
Data from the previous 72 hours. | See also: Recent months at Perth Airport
Date/Time
WST
Tmp

°C
App
Tmp
°C
Dew
Point
°C
Rel
Hum
%
Delta-T

°C
Wind Press
QNH
hPa
Press
MSL
hPa
Rain
since
9 am
mm
Dir
 
Spd
km/h
Gust
km/h
Spd
kts
Gust
kts
21/10:00pm 21.1 18.6 12.2 56 5.0 S 17 22 9 12 1016.2 - 0.0
21/09:30pm 22.0 17.9 11.6 51 5.8 S 24 28 13 15 1016.1 - 0.0
21/09:00pm 22.7 18.0 11.9 50 6.1 S 28 35 15 19 1015.7 1015.6 0.0
21/08:30pm 23.2 18.9 12.1 49 6.3 S 26 33 14 18 1015.3 - 0.0
21/08:00pm 23.7 19.2 12.5 49 6.4 S 28 32 15 17 1015.1 - 0.0
21/07:30pm 24.0 20.4 12.9 50 6.4 SSW 24 33 13 18 1014.8 - 0.0
21/07:00pm 24.8 20.3 12.7 47 7.0 SSW 28 35 15 19 1014.3 - 0.0
21/06:30pm 25.8 20.4 12.2 42 7.8 SW 32 39 17 21 1014.0 - 0.0
21/05:30pm 26.9 21.4 12.4 40 8.4 SW 33 39 18 21 1013.3 - 0.0
21/05:00pm 26.7 22.1 13.5 44 7.8 SW 30 35 16 19 1013.5 - 0.0
21/04:30pm 27.8 23.0 12.8 39 8.8 WSW 30 37 16 20 1013.5 - 0.0
21/04:00pm 28.1 22.7 12.1 37 9.3 SW 32 41 17 22 1013.8 - 0.0
21/03:30pm 28.2 23.4 12.9 38 9.0 W 30 39 16 21 1013.9 - 0.0
21/03:00pm 27.6 23.8 12.5 39 8.8 W 24 35 13 19 1014.1 1014.0 0.0
21/02:30pm 27.4 22.6 12.9 40 8.5 W 30 37 16 20 1014.4 - 0.0
21/02:00pm 29.1 24.1 12.1 35 9.9 WSW 30 48 16 26 1014.7 - 0.0
21/01:55pm 27.6 23.3 13.2 41 8.5 WSW 28 48 15 26 1014.8 - 0.0
21/01:30pm 28.9 24.9 9.0 28 11.0 WSW 20 33 11 18 1015.2 - 0.0
21/01:00pm 28.7 26.4 9.0 29 10.9 SSE 11 24 6 13 1015.3 - 0.0
21/12:30pm 28.1 23.7 9.0 30 10.5 SE 22 32 12 17 1015.5 - 0.0
21/12:00pm 26.8 22.9 9.6 34 9.5 SSE 20 32 11 17 1015.8 1015.7 0.0
21/11:00am 25.7 23.2 8.1 32 9.4 S 11 19 6 10 1016.6 - 0.0
21/10:30am 25.5 21.1 7.5 31 9.5 SSE 20 32 11 17 1016.8 - 0.0
21/10:00am 24.3 20.3 9.1 38 8.2 SSE 20 24 11 13 1016.9 - 0.0
21/09:30am 23.3 19.9 9.2 40 7.6 SE 17 28 9 15 1017.1 - 0.0
21/09:00am 22.3 19.0 9.5 44 6.9 ESE 17 28 9 15 1017.4 1017.3 0.0
21/08:30am 21.5 17.8 9.6 46 6.4 E 19 22 10 12 1017.6 - 0.0
21/08:00am 20.9 17.1 9.9 49 5.9 SE 20 33 11 18 1017.5 - 0.0
21/07:30am 19.9 15.8 10.2 53 5.2 SE 22 30 12 16 1017.4 - 0.0
21/07:00am 18.8 14.7 10.2 57 4.6 SSE 22 32 12 17 1017.4 - 0.0
21/05:30am 16.2 12.4 9.9 66 3.3 S 20 30 11 16 1016.3 - 0.0
21/05:00am 16.1 12.4 10.0 67 3.2 S 20 30 11 16 1016.0 - 0.0
21/04:30am 16.0 12.2 9.9 67 3.2 S 20 28 11 15 1015.6 - 0.0
21/04:00am 16.2 12.6 9.9 66 3.3 S 19 28 10 15 1015.5 - 0.0
21/03:30am 16.5 13.2 9.6 63 3.6 SSE 17 30 9 16 1015.4 - 0.0
21/03:00am 16.8 13.5 9.7 63 3.7 S 17 20 9 11 1015.3 1015.2 0.0
21/02:30am 17.0 13.3 9.5 61 3.9 SSE 19 30 10 16 1015.2 - 0.0
21/01:30am 17.8 13.8 8.9 56 4.6 SE 20 32 11 17 1015.3 - 0.0
21/12:30am 19.1 15.5 8.3 49 5.6 SSE 17 26 9 14 1015.2 - 0.0
21/12:00am 19.8 14.7 7.5 45 6.3 SSE 24 33 13 18 1015.0 1014.9 0.0
 
Date/Time
WST
Tmp

°C
App
Tmp
°C
Dew
Point
°C
Rel
Hum
%
Delta-T

°C
Wind Press
QNH
hPa
Press
MSL
hPa
Rain
since
9 am
mm
Dir
 
Spd
km/h
Gust
km/h
Spd
kts
Gust
kts
20/11:30pm 20.0 13.9 6.7 42 6.7 SSE 28 35 15 19 1014.7 - 0.0
20/11:00pm 20.8 16.8 6.6 39 7.2 SSE 17 20 9 11 1014.5 - 0.0
20/10:30pm 21.5 16.2 6.8 38 7.5 SSE 24 32 13 17 1014.4 - 0.0
20/10:00pm 22.1 15.2 6.6 36 7.9 SSE 32 41 17 22 1014.0 - 0.0
20/09:30pm 22.9 16.6 5.9 33 8.6 SSE 28 33 15 18 1013.5 - 0.0
20/09:00pm 23.7 16.6 6.4 32 8.9 S 33 41 18 22 1012.9 1012.8 0.0
20/08:30pm 24.5 18.3 6.2 31 9.4 SSE 28 39 15 21 1012.2 - 0.0
20/08:00pm 25.2 19.5 6.8 30 9.6 SSE 26 33 14 18 1011.5 - 0.0
20/07:30pm 25.8 19.7 8.4 33 9.4 SSE 30 41 16 22 1010.9 - 0.0
20/07:00pm 26.9 20.6 8.8 32 9.9 SE 32 46 17 25 1010.1 - 0.0
20/06:30pm 28.5 23.2 12.4 37 9.4 S 32 39 17 21 1009.4 - 0.0
20/06:00pm 27.7 24.0 13.8 42 8.3 SW 26 33 14 18 1008.7 1008.6 0.0
20/05:30pm 28.6 23.1 13.5 39 9.0 SW 35 43 19 23 1008.1 - 0.0
20/05:00pm 27.3 22.3 13.4 42 8.2 SW 32 41 17 22 1008.0 - 0.0
20/04:30pm 27.5 22.2 13.1 41 8.5 SW 33 43 18 23 1008.0 - 0.0
20/04:00pm 27.5 22.8 13.3 41 8.4 SW 30 39 16 21 1007.9 - 0.0
20/03:30pm 27.5 22.4 13.7 42 8.2 SW 33 41 18 22 1008.1 - 0.0
20/03:00pm 26.9 22.0 14.4 46 7.5 WSW 33 43 18 23 1008.1 1008.0 0.0
20/02:30pm 27.2 22.3 15.2 47 7.3 SW 35 44 19 24 1008.4 - 0.0
20/02:00pm 27.2 22.8 15.2 47 7.3 WSW 32 41 17 22 1008.5 - 0.0
20/01:30pm 26.1 21.5 15.2 51 6.6 WSW 33 48 18 26 1008.8 - 0.0
20/01:00pm 26.8 21.2 14.5 46 7.4 SW 37 44 20 24 1008.7 - 0.0
20/12:30pm 26.7 22.2 14.8 48 7.2 SW 32 41 17 22 1008.7 - 0.0
20/12:00pm 27.3 23.1 14.7 46 7.6 SW 30 37 16 20 1008.9 1008.8 0.0
20/11:30am 26.2 21.6 14.7 49 6.9 SW 32 39 17 21 1008.7 - 0.0
20/11:00am 26.1 22.8 16.0 53 6.2 WSW 28 35 15 19 1008.6 - 0.0
20/10:30am 25.3 21.5 15.8 55 5.8 W 30 39 16 21 1008.5 - 0.0
20/10:00am 25.5 22.9 15.8 55 5.9 W 24 33 13 18 1008.3 - 0.0
20/09:30am 25.9 24.2 15.7 53 6.2 W 19 26 10 14 1008.1 - 0.0
20/09:00am 25.2 24.2 16.6 59 5.3 W 17 24 9 13 1008.1 1008.0 0.0
20/08:30am 25.3 24.6 17.3 61 5.0 W 17 24 9 13 1007.8 - 0.0
20/08:00am 24.8 23.8 17.6 64 4.5 WNW 19 26 10 14 1007.6 - 0.0
20/07:30am 24.4 24.9 17.5 65 4.3 W 11 17 6 9 1007.5 - 0.0
20/07:00am 23.3 23.9 16.8 67 4.0 NNE 9 13 5 7 1007.4 - 0.0
20/06:30am 22.4 22.4 16.3 68 3.7 NNE 11 13 6 7 1007.2 - 0.0
20/06:00am 22.1 21.0 15.4 65 4.0 NNE 15 17 8 9 1006.7 1006.6 0.0
20/05:30am 23.9 24.2 17.1 65 4.2 E 11 15 6 8 1006.3 - 0.0
20/05:00am 23.7 24.3 16.9 65 4.2 NNE 9 11 5 6 1005.9 - 0.0
20/04:30am 24.5 25.1 16.9 62 4.7 ENE 9 13 5 7 1005.6 - 0.0
20/04:00am 24.8 25.3 16.5 60 5.1 ENE 9 13 5 7 1005.6 - 0.0
20/03:30am 24.8 24.0 16.0 58 5.4 E 15 20 8 11 1005.6 - 0.0
20/03:00am 24.6 23.9 15.5 57 5.5 ENE 13 15 7 8 1005.6 1005.5 0.0
20/02:30am 23.0 22.8 14.6 59 5.0 ENE 9 13 5 7 1005.6 - 0.0
20/02:00am 21.5 21.3 13.7 61 4.5 E 7 9 4 5 1005.8 - 0.0
20/01:30am 22.7 22.8 14.0 58 5.1 SE 6 9 3 5 1006.4 - 0.0
20/01:00am 23.6 23.1 13.9 54 5.7 S 9 11 5 6 1006.7 - 0.0
20/12:30am 24.9 24.6 13.3 48 6.8 SSE 7 11 4 6 1007.2 - 0.0
20/12:00am 25.1 23.8 13.7 49 6.7 SSW 13 17 7 9 1007.1 1007.0 0.0
 
Date/Time
WST
Tmp

°C
App
Tmp
°C
Dew
Point
°C
Rel
Hum
%
Delta-T

°C
Wind Press
QNH
hPa
Press
MSL
hPa
Rain
since
9 am
mm
Dir
 
Spd
km/h
Gust
km/h
Spd
kts
Gust
kts
19/11:30pm 26.2 23.5 13.0 44 7.7 S 19 24 10 13 1007.3 - 0.0
19/11:00pm 27.1 24.1 12.1 39 8.7 S 19 22 10 12 1007.3 - 0.0
19/10:30pm 27.5 24.4 11.7 37 9.1 SSW 19 28 10 15 1007.7 - 0.0
19/10:00pm 27.8 24.8 12.1 37 9.1 S 19 26 10 14 1008.0 - 0.0
19/09:30pm 28.3 24.7 11.9 36 9.5 S 22 30 12 16 1008.0 - 0.0
19/09:00pm 28.8 25.7 11.7 34 9.9 SSW 19 28 10 15 1007.3 1007.2 0.0
19/08:30pm 28.9 24.3 10.9 32 10.3 SSW 26 33 14 18 1006.9 - 0.0
19/08:00pm 29.5 23.3 7.9 25 11.8 SSW 30 39 16 21 1006.4 - 0.0
19/07:30pm 30.4 24.1 5.6 21 13.1 SSW 28 37 15 20 1006.0 - 0.0
19/07:00pm 31.7 25.0 5.6 19 13.9 SSW 30 37 16 20 1005.8 - 0.0
19/06:30pm 32.4 25.5 6.3 19 14.1 SSW 32 41 17 22 1005.5 - 0.0
19/06:00pm 33.6 27.2 7.1 19 14.6 SW 30 37 16 20 1005.3 - 0.0
19/05:39pm 34.5 27.1 6.7 18 15.2 SSW 35 43 19 23 1005.3 - 0.0
19/05:30pm 34.8 26.6 6.6 17 15.5 S 39 43 21 23 1005.3 - 0.0
19/05:00pm 36.5 30.2 7.5 17 16.3 SW 30 37 16 20 1005.2 - 0.0
19/04:30pm 36.8 30.7 8.4 17 16.2 WSW 30 37 16 20 1005.4 - 0.0
19/04:00pm 36.3 29.5 7.7 17 16.1 SW 33 41 18 22 1005.8 - 0.0
19/03:30pm 37.3 30.4 8.8 17 16.4 SW 35 44 19 24 1006.3 - 0.0
19/03:00pm 36.7 30.4 9.7 19 15.7 SW 33 41 18 22 1006.8 1006.7 0.0
19/02:30pm 37.3 32.1 10.2 19 15.9 WSW 28 35 15 19 1007.5 - 0.0
19/02:00pm 37.8 33.3 11.4 20 15.8 SW 26 33 14 18 1007.7 - 0.0
19/01:30pm 38.3 35.8 8.3 16 17.2 E 11 17 6 9 1008.3 - 0.0
19/01:00pm 37.5 35.4 8.2 17 16.7 N 9 13 5 7 1009.0 - 0.0
19/12:30pm 37.9 35.0 8.1 16 17.0 E 13 22 7 12 1009.2 - 0.0
19/12:00pm 36.0 32.2 7.7 17 15.9 NE 17 30 9 16 1010.1 1010.0 0.0
19/11:30am 35.9 31.8 8.7 19 15.5 E 20 28 11 15 1010.6 - 0.0
19/11:00am 34.9 31.1 8.9 20 14.8 ENE 19 26 10 14 1011.0 - 0.0
19/10:30am 33.3 28.7 8.3 21 14.0 E 22 28 12 15 1011.4 - 0.0
19/10:00am 32.1 28.2 8.7 23 13.1 ENE 19 30 10 16 1012.0 - 0.0
19/09:30am 30.3 24.2 8.4 25 12.1 E 30 39 16 21 1012.2 - 0.0
19/09:00am 28.6 22.2 8.5 28 11.0 E 32 41 17 22 1012.5 1012.4 0.0
19/08:30am 27.0 22.0 9.4 33 9.7 ENE 26 35 14 19 1013.0 - 0.0
19/08:00am 24.9 18.6 8.8 36 8.7 E 32 41 17 22 1013.1 - 0.0
19/07:30am 23.2 17.2 8.6 39 7.8 ENE 30 39 16 21 1013.4 - 0.0
19/07:16am 22.4 16.5 9.1 42 7.1 ENE 30 48 16 26 1013.5 - 0.0
19/07:00am 21.8 15.4 9.3 45 6.7 ENE 33 46 18 25 1013.4 - 0.0
19/06:30am 20.7 14.7 8.7 46 6.3 ENE 30 44 16 24 1013.3 - 0.0
19/06:00am 20.1 15.3 8.9 48 5.9 ENE 24 35 13 19 1013.2 1013.1 0.0
19/05:30am 19.9 16.4 8.6 48 5.9 E 17 26 9 14 1013.2 - 0.0
19/05:00am 20.0 16.1 8.8 48 5.9 E 19 35 10 19 1013.0 - 0.0
19/04:30am 20.4 16.6 9.1 48 6.0 E 19 30 10 16 1012.8 - 0.0
19/04:00am 20.7 16.0 9.2 47 6.1 E 24 33 13 18 1012.5 - 0.0
19/03:33am 21.2 15.3 8.9 45 6.5 E 30 48 16 26 1012.2 - 0.0
19/03:30am 21.3 15.7 8.8 44 6.6 E 28 44 15 24 1012.1 - 0.0
19/03:00am 21.4 16.6 8.7 44 6.7 E 24 35 13 19 1012.3 1012.2 0.0
19/02:30am 19.9 17.2 9.1 49 5.7 ENE 13 19 7 10 1012.6 - 0.0
19/02:00am 16.3 15.3 11.1 71 2.8 N 7 15 4 8 1012.8 - 0.0
19/01:30am 16.0 15.3 12.0 77 2.2 N 7 11 4 6 1012.9 - 0.0
19/01:00am 17.0 15.6 12.1 73 2.7 SW 11 13 6 7 1013.3 - 0.0
19/12:30am 16.2 14.4 12.2 77 2.2 S 13 17 7 9 1013.6 - 0.0
19/12:00am 16.6 15.2 12.2 75 2.4 S 11 15 6 8 1013.7 1013.6 0.0
 
Date/Time
WST
Tmp

°C
App
Tmp
°C
Dew
Point
°C
Rel
Hum
%
Delta-T

°C
Wind Press
QNH
hPa
Press
MSL
hPa
Rain
since
9 am
mm
Dir
 
Spd
km/h
Gust
km/h
Spd
kts
Gust
kts
18/11:30pm 18.4 17.2 12.7 69 3.2 S 11 15 6 8 1013.9 - 0.0
18/11:00pm 19.0 16.2 12.6 66 3.6 S 19 26 10 14 1014.1 - 0.0
18/10:30pm 19.7 15.5 12.4 62 4.1 S 26 33 14 18 1014.3 - 0.0

Latest Capital City Observations: Canberra | Sydney | Melbourne | Brisbane | Adelaide | Perth | Hobart | Darwin

Other Formats:

Comma delimited format used in spreadsheet applications
http://www.bom.gov.au/fwo/IDW60901/IDW60901.94610.axf

JavaScript Object Notation format (JSON) in row-major order
http://www.bom.gov.au/fwo/IDW60901/IDW60901.94610.json